Time;durP1;ratioP1;P1;durP2;ratioP2;P2;SDS_P1;SDS_P2;PMS_P1;PMS_P2;Temp;Humidity;BMP_temperature;BMP_pressure;BME280_temperature;BME280_humidity;BME280_pressure;Samples;Min_cycle;Max_cycle;Signal;HPM_P1;HPM_P2
2023/02/28 00:00:12;;;;;;;16.33;3.45;;;4.70;99.90;;;;;;4842838;29;20168;-88
2023/02/28 00:02:39;;;;;;;10.80;2.20;;;4.70;99.90;;;;;;4826399;29;20077;-88
2023/02/28 00:05:07;;;;;;;9.63;2.53;;;4.70;99.90;;;;;;4827900;29;20054;-88
2023/02/28 00:07:32;;;;;;;12.07;2.50;;;4.70;99.90;;;;;;4844222;29;20050;-88
2023/02/28 00:09:58;;;;;;;12.85;2.38;;;4.70;99.90;;;;;;4844576;29;20046;-88
2023/02/28 00:12:24;;;;;;;9.65;2.40;;;4.70;99.90;;;;;;4828320;29;20129;-89
2023/02/28 00:14:50;;;;;;;9.77;2.40;;;4.70;99.90;;;;;;4844814;29;20390;-89
2023/02/28 00:17:20;;;;;;;14.15;2.55;;;4.70;99.90;;;;;;4827415;29;20077;-88
2023/02/28 00:19:49;;;;;;;12.48;2.80;;;4.70;99.90;;;;;;4828059;29;20462;-88
2023/02/28 00:22:17;;;;;;;12.60;2.40;;;4.70;99.90;;;;;;4842866;29;20491;-87
2023/02/28 00:24:43;;;;;;;10.52;2.42;;;4.70;99.90;;;;;;4826630;29;20392;-88
2023/02/28 00:27:09;;;;;;;11.35;2.00;;;4.70;99.90;;;;;;4844172;29;20049;-88
2023/02/28 00:29:34;;;;;;;12.23;2.35;;;4.70;99.90;;;;;;4844489;29;20050;-88
2023/02/28 00:32:00;;;;;;;15.23;2.42;;;4.70;99.90;;;;;;4843634;29;20085;-88
2023/02/28 00:34:26;;;;;;;13.38;2.72;;;4.70;99.90;;;;;;4827624;29;20041;-88
2023/02/28 00:36:52;;;;;;;14.10;2.40;;;4.70;99.90;;;;;;4827376;29;20082;-88
2023/02/28 00:39:17;;;;;;;16.23;2.45;;;4.70;99.90;;;;;;4843492;29;20045;-89
2023/02/28 00:41:43;;;;;;;19.10;3.38;;;4.70;99.90;;;;;;4827371;29;20034;-88
2023/02/28 00:44:09;;;;;;;17.58;2.83;;;4.70;99.90;;;;;;4827202;29;20050;-89
2023/02/28 00:46:35;;;;;;;11.80;2.72;;;4.70;99.90;;;;;;4843698;29;20052;-88
2023/02/28 00:49:00;;;;;;;12.20;2.65;;;4.70;99.90;;;;;;4844317;29;20046;-88
2023/02/28 00:51:26;;;;;;;15.30;2.40;;;4.70;99.90;;;;;;4826361;29;20038;-88
2023/02/28 00:53:52;;;;;;;12.93;2.70;;;4.70;99.90;;;;;;4842772;29;20048;-88
2023/02/28 00:56:17;;;;;;;15.45;2.67;;;4.70;99.90;;;;;;4827106;29;20129;-88
2023/02/28 00:58:43;;;;;;;11.63;2.47;;;4.70;99.90;;;;;;4842998;29;20034;-88
2023/02/28 01:01:08;;;;;;;12.98;2.20;;;4.70;99.90;;;;;;4827517;29;20042;-88
2023/02/28 01:03:34;;;;;;;13.30;3.38;;;4.70;99.90;;;;;;4841608;29;20539;-86
2023/02/28 01:06:00;;;;;;;10.93;2.42;;;4.70;99.90;;;;;;4842925;29;20050;-87
2023/02/28 01:08:26;;;;;;;13.27;2.63;;;4.70;99.90;;;;;;4843190;29;20053;-89
2023/02/28 01:10:52;;;;;;;10.45;2.20;;;4.70;99.90;;;;;;4827626;29;20057;-88
2023/02/28 01:13:19;;;;;;;13.05;2.80;;;4.70;99.90;;;;;;4843185;29;20046;-88
2023/02/28 01:15:53;;;;;;;8.60;2.53;;;4.70;99.90;;;;;;4826561;29;20077;-88
2023/02/28 01:18:20;;;;;;;13.23;2.42;;;4.70;99.90;;;;;;4843181;29;20402;-88
2023/02/28 01:20:46;;;;;;;11.13;2.50;;;4.70;99.90;;;;;;4841850;29;20057;-88
2023/02/28 01:23:12;;;;;;;15.85;2.83;;;4.70;99.90;;;;;;4843347;29;20620;-88
2023/02/28 01:25:38;;;;;;;13.07;2.20;;;4.70;99.90;;;;;;4844034;29;20058;-88
2023/02/28 01:28:05;;;;;;;10.30;2.08;;;4.70;99.90;;;;;;4826694;29;20049;-88
2023/02/28 01:30:31;;;;;;;9.65;3.30;;;4.70;99.90;;;;;;4826701;29;20115;-88
2023/02/28 01:32:56;;;;;;;8.02;2.35;;;4.70;99.90;;;;;;4826926;29;20423;-89
2023/02/28 01:35:22;;;;;;;7.30;2.00;;;4.70;99.90;;;;;;4842186;29;20050;-88
2023/02/28 01:37:47;;;;;;;6.03;2.28;;;4.70;99.90;;;;;;4826525;29;20133;-88
2023/02/28 01:40:13;;;;;;;7.00;2.33;;;4.70;99.90;;;;;;4842800;29;20130;-88
2023/02/28 01:42:39;;;;;;;7.82;2.60;;;4.70;99.90;;;;;;4842331;29;20053;-88
2023/02/28 01:45:27;;;;;;;11.02;2.70;;;4.70;99.90;;;;;;4842474;29;20057;-88
2023/02/28 01:47:58;;;;;;;8.75;2.20;;;4.70;99.90;;;;;;4840588;29;20056;-88
2023/02/28 01:50:28;;;;;;;7.18;2.33;;;4.70;99.90;;;;;;4826732;29;20410;-88
2023/02/28 01:53:04;;;;;;;5.88;2.30;;;4.70;99.90;;;;;;4826566;29;20073;-89
2023/02/28 01:55:31;;;;;;;7.63;2.15;;;4.60;99.90;;;;;;4825862;29;20046;-88
2023/02/28 01:57:59;;;;;;;6.28;2.20;;;4.70;99.90;;;;;;4842961;29;20042;-88
2023/02/28 02:00:29;;;;;;;9.90;2.10;;;4.70;99.90;;;;;;4842754;29;20050;-88
2023/02/28 02:02:59;;;;;;;6.95;2.30;;;4.70;99.90;;;;;;4825661;29;20483;-87
2023/02/28 02:05:28;;;;;;;6.75;2.45;;;4.60;99.90;;;;;;4826204;29;20054;-88
2023/02/28 02:08:08;;;;;;;5.97;2.10;;;4.70;99.90;;;;;;4826015;29;20049;-88
2023/02/28 02:10:43;;;;;;;9.18;2.80;;;4.60;99.90;;;;;;4841594;29;20499;-87
2023/02/28 02:13:29;;;;;;;5.63;1.98;;;4.60;99.90;;;;;;4826326;29;20052;-87
2023/02/28 02:16:07;;;;;;;8.63;2.45;;;4.60;99.90;;;;;;4842088;29;20087;-87
2023/02/28 02:18:47;;;;;;;8.27;2.20;;;4.60;99.90;;;;;;4825939;29;20407;-88
2023/02/28 02:21:34;;;;;;;6.72;2.30;;;4.60;99.90;;;;;;4826506;29;20054;-87
2023/02/28 02:24:02;;;;;;;8.35;2.42;;;4.60;99.90;;;;;;4842249;29;20057;-87
2023/02/28 02:26:51;;;;;;;5.85;2.20;;;4.60;99.90;;;;;;4841632;29;20410;-88
2023/02/28 02:29:38;;;;;;;5.72;2.22;;;4.60;99.90;;;;;;4825924;29;20443;-88
2023/02/28 02:32:07;;;;;;;8.55;2.85;;;4.60;99.90;;;;;;4826235;29;20085;-88
2023/02/28 02:34:40;;;;;;;5.60;2.42;;;4.60;99.90;;;;;;4841446;29;20060;-88
2023/02/28 02:37:43;;;;;;;9.32;2.70;;;4.60;99.90;;;;;;4841524;29;20050;-87
2023/02/28 02:40:48;;;;;;;8.15;2.95;;;4.60;99.90;;;;;;4825750;29;20148;-87
2023/02/28 02:43:22;;;;;;;8.55;2.50;;;4.60;99.90;;;;;;4841129;29;20445;-87
2023/02/28 02:45:54;;;;;;;10.73;2.90;;;4.60;99.90;;;;;;4841459;29;20058;-88
2023/02/28 02:48:30;;;;;;;12.27;3.67;;;4.60;99.90;;;;;;4825033;29;20046;-87
2023/02/28 02:50:59;;;;;;;5.07;2.67;;;4.60;99.90;;;;;;4840115;29;20141;-87
2023/02/28 02:53:30;;;;;;;7.90;3.28;;;4.60;99.90;;;;;;4825873;29;20056;-87
2023/02/28 02:55:57;;;;;;;10.13;3.58;;;4.60;99.90;;;;;;4825587;29;20058;-87
2023/02/28 02:58:27;;;;;;;7.13;3.80;;;4.60;99.90;;;;;;4839895;29;20129;-87
2023/02/28 03:00:58;;;;;;;8.40;3.17;;;4.60;99.90;;;;;;4842232;29;20050;-87
2023/02/28 03:03:30;;;;;;;8.43;2.97;;;4.60;99.90;;;;;;4825105;29;20038;-87
2023/02/28 03:05:58;;;;;;;8.27;3.10;;;4.60;99.90;;;;;;4824890;29;20089;-87
2023/02/28 03:08:24;;;;;;;9.48;3.50;;;4.50;99.90;;;;;;4824988;29;20052;-87
2023/02/28 03:10:52;;;;;;;6.32;3.00;;;4.60;99.90;;;;;;4825428;29;20045;-87
2023/02/28 03:13:35;;;;;;;6.88;3.42;;;4.50;99.90;;;;;;4821358;29;20559;-87
2023/02/28 03:16:10;;;;;;;5.90;2.90;;;4.50;99.90;;;;;;4822230;29;20050;-88
2023/02/28 03:19:05;;;;;;;6.45;3.10;;;4.50;99.90;;;;;;4825146;29;20058;-87
2023/02/28 03:21:49;;;;;;;7.13;3.03;;;4.50;99.90;;;;;;4825234;29;20053;-87
2023/02/28 03:24:25;;;;;;;6.68;3.03;;;4.50;99.90;;;;;;4841302;29;20406;-88
2023/02/28 03:27:00;;;;;;;6.53;3.22;;;4.40;99.90;;;;;;4841243;29;20053;-87
2023/02/28 03:29:37;;;;;;;8.27;3.17;;;4.40;99.90;;;;;;4823941;29;20108;-89
2023/02/28 03:32:14;;;;;;;6.63;3.42;;;4.40;99.90;;;;;;4841438;29;20057;-89
2023/02/28 03:34:55;;;;;;;7.65;3.22;;;4.40;99.90;;;;;;4841019;29;20087;-91
2023/02/28 03:37:23;;;;;;;10.07;3.78;;;4.30;99.90;;;;;;4841872;29;20042;-90
2023/02/28 03:39:59;;;;;;;9.15;3.97;;;4.30;99.90;;;;;;4841758;29;20060;-90
2023/02/28 03:42:29;;;;;;;10.15;3.63;;;4.30;99.90;;;;;;4840389;29;20042;-90
2023/02/28 03:45:00;;;;;;;6.25;3.28;;;4.30;99.90;;;;;;4840432;29;20387;-90
2023/02/28 03:47:55;;;;;;;6.97;3.60;;;4.30;99.90;;;;;;4824520;29;20383;-91
2023/02/28 03:50:23;;;;;;;6.63;2.90;;;4.30;99.90;;;;;;4825191;29;20078;-90
2023/02/28 03:52:55;;;;;;;8.02;3.47;;;4.30;99.90;;;;;;4842090;29;20046;-91
2023/02/28 03:55:21;;;;;;;9.52;3.53;;;4.30;99.90;;;;;;4824597;29;20403;-91
2023/02/28 03:58:00;;;;;;;6.63;3.60;;;4.30;99.90;;;;;;4825774;29;20045;-91
2023/02/28 04:00:31;;;;;;;7.65;3.53;;;4.30;99.90;;;;;;4844100;29;20077;-90
2023/02/28 04:02:57;;;;;;;7.78;3.63;;;4.30;99.90;;;;;;4828230;29;20481;-92
2023/02/28 04:05:23;;;;;;;6.47;3.33;;;4.30;99.90;;;;;;4845112;29;20054;-92
2023/02/28 04:07:49;;;;;;;11.48;3.42;;;4.30;99.90;;;;;;4845961;29;20050;-93
2023/02/28 04:10:16;;;;;;;6.88;2.95;;;4.30;99.90;;;;;;4844822;29;20053;-92
2023/02/28 04:12:41;;;;;;;8.13;3.45;;;4.30;99.90;;;;;;4829160;29;20077;-91
2023/02/28 04:15:08;;;;;;;6.55;3.30;;;4.30;99.90;;;;;;4845027;29;20127;-92
2023/02/28 04:17:33;;;;;;;7.35;3.30;;;4.20;99.90;;;;;;4845687;29;20094;-93
2023/02/28 04:19:59;;;;;;;8.40;4.00;;;4.30;99.90;;;;;;4828891;29;20447;-93
2023/02/28 04:22:27;;;;;;;6.60;3.33;;;4.30;99.90;;;;;;4844110;29;20053;-91
2023/02/28 04:24:54;;;;;;;7.53;3.28;;;4.30;99.90;;;;;;4829148;29;20046;-93
2023/02/28 04:27:21;;;;;;;6.47;3.35;;;4.20;99.90;;;;;;4845425;29;20077;-93
2023/02/28 04:29:46;;;;;;;7.57;3.38;;;4.20;99.90;;;;;;4843581;29;20053;-92
2023/02/28 04:32:12;;;;;;;6.78;3.28;;;4.30;99.90;;;;;;4828673;29;20410;-92
2023/02/28 04:34:38;;;;;;;5.68;3.08;;;4.30;99.90;;;;;;4828681;29;20109;-92
2023/02/28 04:37:06;;;;;;;7.00;3.47;;;4.30;99.90;;;;;;4843829;29;20049;-93
2023/02/28 04:39:35;;;;;;;6.10;3.50;;;4.30;99.90;;;;;;4828289;29;20065;-93
2023/02/28 04:42:01;;;;;;;6.70;3.30;;;4.30;99.90;;;;;;4828192;29;20057;-92
2023/02/28 04:44:26;;;;;;;7.07;3.35;;;4.30;99.90;;;;;;4827894;29;20049;-93
2023/02/28 04:46:52;;;;;;;6.93;3.30;;;4.20;99.90;;;;;;4828511;29;20045;-92
2023/02/28 04:49:17;;;;;;;6.50;3.25;;;4.30;99.90;;;;;;4844292;29;20054;-92
2023/02/28 04:51:43;;;;;;;9.18;4.35;;;4.30;99.90;;;;;;4828053;29;20046;-93
2023/02/28 04:54:09;;;;;;;7.05;3.85;;;4.30;99.90;;;;;;4845034;29;20499;-92
2023/02/28 04:56:35;;;;;;;7.07;3.22;;;4.20;99.90;;;;;;4845301;29;20046;-93
2023/02/28 04:59:01;;;;;;;8.23;3.30;;;4.20;99.90;;;;;;4844816;29;20093;-92
2023/02/28 05:01:29;;;;;;;9.25;4.05;;;4.30;99.90;;;;;;4844591;29;20050;-94
2023/02/28 05:03:57;;;;;;;9.23;4.93;;;4.20;99.90;;;;;;4828205;29;20935;-93
2023/02/28 05:06:25;;;;;;;10.27;5.15;;;4.20;99.90;;;;;;4827700;29;20078;-94
2023/02/28 05:08:51;;;;;;;7.57;4.50;;;4.20;99.90;;;;;;4828152;29;20509;-94
2023/02/28 05:11:29;;;;;;;7.55;4.35;;;4.20;99.90;;;;;;4827814;29;20106;-93
2023/02/28 05:13:55;;;;;;;8.45;4.93;;;4.20;99.90;;;;;;4827632;29;20046;-93
2023/02/28 05:16:21;;;;;;;6.65;4.32;;;4.20;99.90;;;;;;4828421;29;20050;-93
2023/02/28 05:18:47;;;;;;;6.57;4.07;;;4.20;99.90;;;;;;4827623;29;20061;-92
2023/02/28 05:21:31;;;;;;;9.10;4.70;;;4.20;99.90;;;;;;4844547;29;20038;-92
2023/02/28 05:23:59;;;;;;;10.30;5.30;;;4.20;99.90;;;;;;4828188;29;20045;-93
2023/02/28 05:26:26;;;;;;;9.18;5.15;;;4.20;99.90;;;;;;4827741;29;20121;-93
2023/02/28 05:28:52;;;;;;;7.88;4.80;;;4.10;99.90;;;;;;4828174;29;20050;-94
2023/02/28 05:31:18;;;;;;;8.82;5.05;;;4.20;99.90;;;;;;4844337;29;20053;-94
2023/02/28 05:33:44;;;;;;;9.10;5.45;;;4.20;99.90;;;;;;4827306;29;20042;-93
2023/02/28 05:36:09;;;;;;;10.45;5.93;;;4.10;99.90;;;;;;4827540;29;20045;-93
2023/02/28 05:38:35;;;;;;;8.05;5.30;;;4.10;99.90;;;;;;4810857;29;20069;-93
2023/02/28 05:41:08;;;;;;;9.05;5.80;;;4.10;99.90;;;;;;4923639;24;20528;-93
2023/02/28 05:43:34;;;;;;;;;;;4.10;99.90;;;;;;4854758;29;20051;-93
2023/02/28 05:46:06;;;;;;;10.38;7.28;;;4.10;99.90;;;;;;4859963;29;20407;-95
2023/02/28 05:48:37;;;;;;;10.13;6.47;;;4.10;99.90;;;;;;4861990;29;20056;-94
2023/02/28 05:51:04;;;;;;;9.93;6.95;;;4.10;99.90;;;;;;4863453;29;20302;-95
2023/02/28 05:53:31;;;;;;;10.40;7.30;;;4.10;99.90;;;;;;4849887;29;20061;-94
2023/02/28 06:04:00;;;;;;;9.55;6.82;;;4.10;99.90;;;;;;5808991;23;20163;-94
2023/02/28 06:06:26;;;;;;;11.27;6.93;;;4.10;99.90;;;;;;4864108;29;20133;-96
2023/02/28 06:08:51;;;;;;;10.95;6.95;;;4.10;99.90;;;;;;4862253;29;20124;-93
2023/02/28 06:11:27;;;;;;;10.20;6.45;;;4.10;99.90;;;;;;4865311;29;20079;-95
2023/02/28 06:14:00;;;;;;;11.45;7.28;;;4.10;99.90;;;;;;4865449;29;20532;-96
2023/02/28 06:16:26;;;;;;;;;;;4.10;99.90;;;;;;4868488;29;20109;-96
2023/02/28 06:19:03;;;;;;;10.60;6.35;;;4.00;99.90;;;;;;4867765;29;19928;-96
2023/02/28 06:21:35;;;;;;;12.20;7.57;;;4.00;99.90;;;;;;4867234;29;20057;-96
2023/02/28 06:24:16;;;;;;;10.73;7.10;;;4.00;99.90;;;;;;4868698;29;20049;-96
2023/02/28 06:26:45;;;;;;;10.80;7.07;;;4.00;99.90;;;;;;4871278;29;20050;-96
2023/02/28 06:29:23;;;;;;;12.48;7.80;;;4.00;99.90;;;;;;4860516;29;20124;-96
2023/02/28 06:31:55;;;;;;;12.85;7.63;;;4.00;99.90;;;;;;4855390;29;20049;-96
2023/02/28 06:34:27;;;;;;;12.10;7.57;;;4.00;99.90;;;;;;4864243;29;20482;-96
2023/02/28 06:37:01;;;;;;;11.70;7.70;;;4.00;99.90;;;;;;4865772;29;20103;-96
2023/02/28 06:39:36;;;;;;;10.50;7.05;;;4.00;99.90;;;;;;4860294;29;20042;-95
2023/02/28 06:42:08;;;;;;;12.40;7.53;;;4.00;99.90;;;;;;4861185;29;20037;-96
2023/02/28 06:44:43;;;;;;;11.70;7.70;;;4.00;99.90;;;;;;4826717;24;1189220;-95
2023/02/28 06:47:17;;;;;;;12.43;7.70;;;4.00;99.90;;;;;;4868603;23;20528;-95
2023/02/28 06:49:52;;;;;;;12.70;7.32;;;4.00;99.90;;;;;;4862052;29;20057;-96
2023/02/28 06:52:26;;;;;;;11.18;7.72;;;4.00;99.90;;;;;;4864186;29;20045;-94
2023/02/28 06:55:01;;;;;;;12.10;7.90;;;4.00;99.90;;;;;;4864239;29;20509;-95
2023/02/28 06:57:31;;;;;;;12.27;7.18;;;4.00;99.90;;;;;;4860519;29;20053;-96
2023/02/28 07:00:35;;;;;;;10.82;7.53;;;4.00;99.90;;;;;;4865471;29;20049;-95
2023/02/28 07:03:11;;;;;;;11.00;7.80;;;3.90;99.90;;;;;;4862508;29;20125;-94
2023/02/28 07:05:49;;;;;;;12.57;7.72;;;3.90;99.90;;;;;;4862030;29;20053;-93
2023/02/28 07:08:27;;;;;;;12.85;8.05;;;4.00;99.90;;;;;;4862288;29;20109;-94
2023/02/28 07:11:02;;;;;;;10.68;7.00;;;3.90;99.90;;;;;;4861397;29;20513;-93
2023/02/28 07:13:37;;;;;;;12.05;7.43;;;3.90;99.90;;;;;;4860699;29;20414;-92
2023/02/28 07:16:13;;;;;;;12.93;7.90;;;4.00;99.90;;;;;;4857253;29;20049;-93
2023/02/28 07:18:55;;;;;;;12.32;8.18;;;3.90;99.90;;;;;;4869785;29;20092;-89
2023/02/28 07:21:21;;;;;;;12.43;8.27;;;3.90;99.90;;;;;;4859076;29;20068;-89
2023/02/28 07:23:46;;;;;;;11.60;8.35;;;3.90;99.90;;;;;;4860222;29;20056;-90
2023/02/28 07:26:15;;;;;;;12.40;8.18;;;3.90;99.90;;;;;;4857121;29;20045;-91
2023/02/28 07:28:42;;;;;;;11.05;7.78;;;3.90;99.90;;;;;;4859889;29;20553;-92
2023/02/28 07:31:08;;;;;;;11.48;7.47;;;3.90;99.90;;;;;;4854313;29;20415;-89
2023/02/28 07:33:34;;;;;;;12.10;7.70;;;3.90;99.90;;;;;;4855324;29;20073;-89
2023/02/28 07:36:04;;;;;;;11.90;7.30;;;3.90;99.90;;;;;;4852539;29;20065;-89
2023/02/28 07:38:33;;;;;;;11.27;7.70;;;3.90;99.90;;;;;;4862694;29;20061;-90
2023/02/28 07:40:58;;;;;;;12.65;7.80;;;3.90;99.90;;;;;;4857004;29;20054;-89
2023/02/28 07:43:24;;;;;;;12.27;8.15;;;3.90;99.90;;;;;;4844443;29;20046;-89
2023/02/28 07:45:49;;;;;;;11.57;7.97;;;3.90;99.90;;;;;;4858341;29;20068;-89
2023/02/28 07:48:15;;;;;;;11.13;7.50;;;3.90;99.90;;;;;;4860968;29;20129;-89
2023/02/28 07:50:41;;;;;;;13.10;8.20;;;3.90;99.90;;;;;;4859357;29;20152;-88
2023/02/28 07:53:06;;;;;;;10.18;7.28;;;3.90;99.90;;;;;;4862345;29;20478;-88
2023/02/28 07:55:32;;;;;;;11.73;8.23;;;3.90;99.90;;;;;;4860898;29;20075;-89
2023/02/28 07:57:58;;;;;;;12.27;7.78;;;3.90;99.90;;;;;;4861854;29;20049;-88
2023/02/28 08:00:24;;;;;;;10.43;7.30;;;3.90;99.90;;;;;;4861900;29;20042;-89
2023/02/28 08:02:50;;;;;;;13.75;8.13;;;3.90;99.90;;;;;;4862478;29;20064;-91
2023/02/28 08:05:16;;;;;;;13.13;8.45;;;3.90;99.90;;;;;;4862317;29;20037;-89
2023/02/28 08:07:41;;;;;;;10.30;7.72;;;3.90;99.90;;;;;;4862623;29;20053;-87
2023/02/28 08:10:09;;;;;;;11.32;8.10;;;3.90;99.90;;;;;;4860402;29;20053;-86
2023/02/28 08:12:35;;;;;;;12.50;7.85;;;3.90;99.90;;;;;;4845652;29;20105;-88
2023/02/28 08:15:01;;;;;;;13.48;9.43;;;3.90;99.90;;;;;;4862023;29;20041;-88
2023/02/28 08:17:26;;;;;;;14.95;9.48;;;3.90;99.90;;;;;;4858314;29;20062;-89
2023/02/28 08:19:52;;;;;;;12.13;8.05;;;3.90;99.90;;;;;;4854467;29;20053;-90
2023/02/28 08:22:18;;;;;;;11.02;7.90;;;4.00;99.90;;;;;;4844328;29;20077;-90
2023/02/28 08:24:43;;;;;;;14.30;8.32;;;3.90;99.90;;;;;;4858623;29;20046;-88
2023/02/28 08:27:09;;;;;;;12.30;8.25;;;4.00;99.90;;;;;;4850603;29;20046;-91
2023/02/28 08:29:38;;;;;;;13.60;7.97;;;3.90;99.90;;;;;;4844297;29;20090;-89
2023/02/28 08:32:04;;;;;;;14.60;9.07;;;4.00;99.90;;;;;;4854863;29;20053;-91
2023/02/28 08:34:30;;;;;;;11.93;8.25;;;4.00;99.90;;;;;;4861938;29;20383;-91
2023/02/28 08:36:55;;;;;;;11.02;8.05;;;4.00;99.90;;;;;;4861053;29;20064;-89
2023/02/28 08:39:21;;;;;;;10.25;7.70;;;4.00;99.90;;;;;;4861810;29;20042;-91
2023/02/28 08:41:46;;;;;;;11.85;7.95;;;4.00;99.90;;;;;;4862008;29;20144;-90
2023/02/28 08:44:12;;;;;;;13.13;8.55;;;4.10;99.90;;;;;;4859905;29;20049;-91
2023/02/28 08:46:38;;;;;;;14.70;8.65;;;4.10;99.90;;;;;;4860735;29;20053;-90
2023/02/28 08:49:04;;;;;;;11.75;8.02;;;4.00;99.90;;;;;;4861132;29;20613;-89
2023/02/28 08:51:30;;;;;;;11.82;8.50;;;4.10;99.90;;;;;;4856199;29;20050;-90
2023/02/28 08:53:59;;;;;;;12.90;8.23;;;4.10;99.90;;;;;;4858397;29;20048;-90
2023/02/28 08:56:26;;;;;;;13.18;8.52;;;4.10;99.90;;;;;;4861881;29;20049;-89
2023/02/28 08:58:55;;;;;;;13.55;8.55;;;4.10;99.90;;;;;;4862274;29;20057;-91
2023/02/28 09:01:23;;;;;;;12.02;8.18;;;4.20;99.90;;;;;;4860565;29;20041;-90
2023/02/28 09:03:50;;;;;;;12.35;8.25;;;4.20;99.90;;;;;;4860498;29;20060;-91
2023/02/28 09:06:19;;;;;;;14.20;8.60;;;4.20;99.90;;;;;;4859609;29;20452;-90
2023/02/28 09:08:45;;;;;;;12.15;8.27;;;4.20;99.90;;;;;;4853920;29;20501;-90
2023/02/28 09:11:11;;;;;;;11.38;8.02;;;4.30;99.90;;;;;;4859027;29;20054;-91
2023/02/28 09:13:37;;;;;;;14.52;8.23;;;4.30;99.90;;;;;;4861169;29;20050;-94
2023/02/28 09:16:04;;;;;;;14.52;8.63;;;4.30;99.90;;;;;;4861308;29;20057;-91
2023/02/28 09:18:30;;;;;;;13.27;8.70;;;4.30;99.90;;;;;;4861052;29;20052;-90
2023/02/28 09:20:57;;;;;;;12.88;8.68;;;4.40;99.90;;;;;;4860945;29;20050;-91
2023/02/28 09:23:23;;;;;;;13.02;8.77;;;4.40;99.90;;;;;;4861318;29;20053;-91
2023/02/28 09:25:51;;;;;;;13.25;8.18;;;4.40;99.90;;;;;;4859936;29;20046;-90
2023/02/28 09:28:17;;;;;;;12.13;8.63;;;4.50;99.90;;;;;;4862071;29;20060;-90
2023/02/28 09:30:48;;;;;;;13.07;8.02;;;4.50;99.90;;;;;;4862401;29;20053;-91
2023/02/28 09:33:15;;;;;;;11.82;7.53;;;4.50;99.90;;;;;;4861602;29;20056;-91
2023/02/28 09:35:42;;;;;;;11.75;8.23;;;4.60;99.90;;;;;;4860770;29;20041;-89
2023/02/28 09:38:08;;;;;;;12.43;8.38;;;4.60;99.90;;;;;;4860672;29;20049;-90
2023/02/28 09:40:46;;;;;;;14.52;8.02;;;4.70;99.90;;;;;;4859988;29;20077;-91
2023/02/28 09:43:15;;;;;;;12.32;8.07;;;4.70;99.90;;;;;;4844661;29;20046;-90
2023/02/28 09:45:42;;;;;;;12.65;7.95;;;4.80;99.90;;;;;;4858515;29;20394;-90
2023/02/28 09:48:25;;;;;;;14.90;8.73;;;4.80;99.90;;;;;;4860893;29;20045;-91
2023/02/28 09:51:03;;;;;;;13.20;7.55;;;4.90;99.90;;;;;;4860077;29;20049;-89
2023/02/28 09:53:33;;;;;;;12.57;7.85;;;4.90;99.90;;;;;;4852401;29;20038;-89
2023/02/28 09:56:04;;;;;;;10.55;7.93;;;4.90;99.90;;;;;;4861806;29;20133;-89
2023/02/28 09:58:46;;;;;;;11.40;7.47;;;5.00;99.90;;;;;;4860571;29;20045;-88
2023/02/28 10:01:36;;;;;;;11.05;7.95;;;5.00;99.90;;;;;;4843829;29;20056;-87
2023/02/28 10:04:12;;;;;;;13.80;8.10;;;5.10;99.90;;;;;;4859710;29;20093;-88
2023/02/28 10:06:45;;;;;;;12.77;7.65;;;5.10;99.90;;;;;;4857500;29;20103;-88
2023/02/28 10:09:17;;;;;;;12.95;7.93;;;5.20;99.90;;;;;;4841745;29;20042;-87
2023/02/28 10:11:45;;;;;;;11.27;7.30;;;5.20;99.90;;;;;;4841088;29;20129;-88
2023/02/28 10:14:20;;;;;;;10.50;6.47;;;5.30;99.90;;;;;;4842300;29;20042;-88
2023/02/28 10:17:09;;;;;;;9.63;6.72;;;5.30;99.90;;;;;;4852269;29;20053;-88
2023/02/28 10:19:49;;;;;;;9.30;6.18;;;5.30;99.90;;;;;;4859325;29;20431;-87
2023/02/28 10:22:20;;;;;;;12.40;7.20;;;5.40;99.90;;;;;;4858876;29;20387;-88
2023/02/28 10:24:51;;;;;;;11.32;7.40;;;5.40;99.90;;;;;;4859650;29;20052;-88
2023/02/28 10:27:22;;;;;;;12.75;6.80;;;5.50;99.90;;;;;;4859378;29;20562;-88
2023/02/28 10:29:51;;;;;;;11.85;7.47;;;5.50;99.90;;;;;;4859098;29;20049;-88
2023/02/28 10:32:28;;;;;;;10.05;5.53;;;5.60;99.90;;;;;;4852284;29;20124;-87
2023/02/28 10:35:14;;;;;;;9.02;5.30;;;5.60;99.90;;;;;;4856378;29;20053;-87
2023/02/28 10:37:41;;;;;;;9.40;5.93;;;5.70;99.90;;;;;;4860204;29;20085;-88
2023/02/28 10:40:30;;;;;;;10.82;5.45;;;5.80;99.90;;;;;;4860458;29;20061;-87
2023/02/28 10:43:03;;;;;;;9.35;5.65;;;5.80;99.90;;;;;;4847717;29;20061;-87
2023/02/28 10:45:31;;;;;;;9.07;4.10;;;5.80;99.90;;;;;;4848618;29;20057;-87
2023/02/28 10:47:57;;;;;;;7.60;4.93;;;5.90;99.90;;;;;;4850010;29;20259;-88
2023/02/28 10:50:50;;;;;;;7.90;5.75;;;6.00;99.90;;;;;;4857398;29;20045;-87
2023/02/28 10:53:21;;;;;;;9.63;6.15;;;6.10;99.90;;;;;;4853899;29;20041;-87
2023/02/28 10:56:00;;;;;;;8.32;4.47;;;6.10;99.90;;;;;;4858189;29;20240;-87
2023/02/28 10:58:29;;;;;;;9.40;6.00;;;6.20;99.90;;;;;;4858368;29;20053;-86
2023/02/28 11:00:55;;;;;;;7.22;4.18;;;6.20;99.90;;;;;;4853715;29;20081;-90
2023/02/28 11:03:30;;;;;;;9.30;5.55;;;6.30;99.90;;;;;;4839668;29;20046;-88
2023/02/28 11:05:57;;;;;;;8.70;4.38;;;6.40;99.90;;;;;;4843085;29;20487;-87
2023/02/28 11:08:24;;;;;;;14.15;8.30;;;6.40;99.90;;;;;;4859196;29;20074;-87
2023/02/28 11:11:00;;;;;;;10.70;6.95;;;6.40;99.90;;;;;;4858479;29;20050;-89
2023/02/28 11:13:37;;;;;;;8.75;6.07;;;6.50;99.90;;;;;;4847909;29;20509;-88
2023/02/28 11:16:09;;;;;;;8.70;4.88;;;6.60;99.90;;;;;;4856086;29;20049;-89
2023/02/28 11:18:48;;;;;;;8.68;5.35;;;6.70;99.90;;;;;;4862530;29;20110;-88
2023/02/28 11:21:39;;;;;;;7.47;5.55;;;6.70;99.90;;;;;;4856081;29;20062;-87
2023/02/28 11:24:24;;;;;;;9.48;5.90;;;6.80;99.90;;;;;;4845249;29;20045;-87
2023/02/28 11:26:50;;;;;;;7.28;4.82;;;6.90;99.90;;;;;;4858723;29;20106;-89
2023/02/28 11:29:19;;;;;;;10.10;5.10;;;6.90;99.90;;;;;;4862975;29;20045;-88
2023/02/28 11:32:08;;;;;;;8.48;5.25;;;7.00;99.90;;;;;;4852289;29;20185;-88
2023/02/28 11:34:34;;;;;;;8.85;5.03;;;7.10;99.90;;;;;;4859612;29;20112;-90
2023/02/28 11:37:04;;;;;;;8.95;5.25;;;7.10;99.90;;;;;;4861302;29;20410;-90
2023/02/28 11:39:30;;;;;;;8.35;5.20;;;7.20;99.90;;;;;;4864624;29;20051;-89
2023/02/28 11:42:04;;;;;;;8.93;5.38;;;7.30;99.90;;;;;;4859816;29;20050;-88
2023/02/28 11:45:04;;;;;;;7.85;4.78;;;7.40;99.90;;;;;;4862560;29;20048;-89
2023/02/28 11:47:55;;;;;;;8.38;5.07;;;7.50;99.90;;;;;;4855690;29;20506;-90
2023/02/28 11:50:57;;;;;;;9.10;5.10;;;7.60;99.90;;;;;;4857453;29;20078;-90
2023/02/28 11:53:42;;;;;;;8.13;4.90;;;7.60;99.90;;;;;;4861441;29;20049;-89
2023/02/28 11:56:21;;;;;;;8.88;5.00;;;7.70;99.90;;;;;;4878657;29;20443;-90
2023/02/28 11:58:49;;;;;;;7.28;5.15;;;7.70;99.90;;;;;;4864922;29;20397;-90
2023/02/28 12:01:27;;;;;;;8.05;5.03;;;7.80;99.90;;;;;;4863362;29;20124;-89
2023/02/28 12:05:00;;;;;;;9.30;5.28;;;7.80;99.90;;;;;;4845577;29;20054;-92
2023/02/28 12:07:58;;;;;;;7.70;4.93;;;7.90;99.90;;;;;;4802948;29;20500;-90
2023/02/28 12:10:28;;;;;;;9.70;5.13;;;7.90;99.90;;;;;;4816976;29;20056;-90
2023/02/28 12:13:21;;;;;;;7.22;4.85;;;8.00;99.90;;;;;;4840354;29;20100;-89
2023/02/28 12:16:02;;;;;;;7.82;5.03;;;8.10;99.90;;;;;;4862935;29;20054;-90
2023/02/28 12:19:06;;;;;;;8.38;5.20;;;8.10;99.90;;;;;;4859582;29;20049;-90
2023/02/28 12:21:57;;;;;;;10.88;5.20;;;8.20;99.90;;;;;;4860871;29;20057;-93
2023/02/28 12:24:44;;;;;;;8.52;4.88;;;8.20;99.90;;;;;;4862500;29;20042;-90
2023/02/28 12:27:15;;;;;;;8.95;4.95;;;8.20;99.90;;;;;;4860520;29;20053;-91
2023/02/28 12:30:03;;;;;;;9.10;5.80;;;8.30;99.90;;;;;;4865773;29;20105;-91
2023/02/28 12:32:39;;;;;;;8.18;5.05;;;8.30;99.90;;;;;;4863082;29;20611;-91
2023/02/28 12:35:18;;;;;;;7.22;4.85;;;8.40;99.90;;;;;;4851068;29;20054;-92
2023/02/28 12:40:25;;;;;;;6.53;4.28;;;8.50;99.90;;;;;;4864285;29;20049;-93
2023/02/28 12:43:07;;;;;;;9.88;4.97;;;8.50;99.90;;;;;;4858878;29;20057;-92
2023/02/28 12:46:26;;;;;;;9.50;5.05;;;8.60;99.90;;;;;;4859110;29;20074;-91
2023/02/28 12:49:14;;;;;;;8.13;5.13;;;8.60;99.90;;;;;;4773925;30;20571;-92
2023/02/28 12:51:44;;;;;;;8.25;5.30;;;8.70;99.90;;;;;;4772596;30;20098;-91
2023/02/28 12:54:20;;;;;;;9.15;5.43;;;8.80;99.90;;;;;;4830960;29;20210;-91
2023/02/28 12:57:22;;;;;;;8.20;5.20;;;8.90;99.90;;;;;;4860293;29;20057;-91
2023/02/28 13:00:04;;;;;;;8.40;4.53;;;8.90;99.90;;;;;;4861619;29;20045;-92
2023/02/28 13:02:51;;;;;;;9.57;4.72;;;9.00;99.90;;;;;;4861508;29;20092;-93
2023/02/28 13:05:32;;;;;;;6.82;4.72;;;9.00;99.90;;;;;;4867516;24;20049;-91
2023/02/28 13:08:42;;;;;;;7.20;4.72;;;9.10;99.90;;;;;;4861245;29;20057;-91
2023/02/28 13:11:30;;;;;;;6.82;4.80;;;9.10;99.90;;;;;;4859042;29;20197;-89
2023/02/28 13:14:05;;;;;;;7.28;4.55;;;9.20;99.90;;;;;;4860526;29;20049;-90
2023/02/28 13:16:56;;;;;;;7.70;3.70;;;9.20;99.90;;;;;;4861491;29;20488;-91
2023/02/28 13:19:28;;;;;;;7.88;4.47;;;9.20;99.90;;;;;;4862384;29;20070;-91
2023/02/28 13:21:56;;;;;;;7.68;4.68;;;9.20;99.90;;;;;;4852212;24;20418;-91
2023/02/28 13:24:33;;;;;;;8.73;5.18;;;9.30;99.90;;;;;;4841842;29;20050;-93
2023/02/28 13:27:06;;;;;;;9.02;5.03;;;9.30;99.90;;;;;;4842307;29;20050;-92
2023/02/28 13:29:44;;;;;;;8.45;4.45;;;9.40;99.90;;;;;;4831915;29;20129;-92